Alpaugh, CA

8:32 PM PDT on August 22, 2014 (GMT -0700)
PASUZA LAND AND WATER, DUCK HUNTING CLUB | Change Station
CLOSE
Current Station
Personal Weather Station
Location: Wasco, CA
Elevation: 213 ft
Nearby Weather Stations

Elev 213 ft 35.73 °N, 119.49 °W | Updated 4 seconds ago

Clear
Clear
84.4 °F
Feels Like 81 °F
N
8.3
Wind Variable Wind from WNW
Gusts 16.8 mph

Today
High -- | Low -- °F
--% Chance of Precip.
Yesterday
High -- | Low -- °F
Precip. -- in
6:21 AM 7:38 PM
Waning Crescent, 5% visible
Pressure 29.83 in
Visibility 10.0 miles
Clouds Clear
Heat Index 81 °F
Dew Point 22 °F
Humidity 10%
Rainfall 0.00 in
Snow Depth Not available.
UV 1.0 out of 12
Pollen 8.50 out of 12
Ozone Good
PM2.5 Good
Flu Activity Not available.
METAR KPTV 230315Z AUTO 26008KT 10SM CLR 30/09 A2983 RMK AO1

More Conditions Fewer Conditions

Pressure 29.83 in
Visibility 10.0 miles
Clouds Clear
Heat Index 81 °F
Dew Point 22 °F
Humidity 10%
Rainfall 0.00 in
Snow Depth Not available.
UV 1.0 out of 12
Pollen 8.50 out of 12
Ozone Good
PM2.5 Good
Flu Activity Not available.
METAR KPTV 230315Z AUTO 26008KT 10SM CLR 30/09 A2983 RMK AO1

More Conditions Fewer Conditions

10-Day Weather Forecast

Almanac

Astronomy

Aug. 22, 2014 Rise Set
Actual Time 6:21 AM PDT 7:38 PM PDT
Civil Twilight 5:55 AM PDT 8:05 PM PDT
Nautical Twilight 5:23 AM PDT 8:37 PM PDT
Astronomical Twilight 4:49 AM PDT 9:10 PM PDT
Moon 3:51 AM PDT (8/22) 5:48 PM PDT (8/22)
Length of Visible Light 14h 10m
Length of Day
13h 16m
Tomorrow will be 2m 5s shorter.
Waning Crescent, 5% of the Moon is Illuminated
Today
Waning Crescent
Aug 25
New
Sep 2
First Quarter
Sep 8
Full
Sep 15
Last Quarter

Today's Extremes

State Highs State Lows

Community

WunderPhotos

Upload Photos

1,746,352 photos uploaded!

WunderBlogs® & News

Nearby

Air Quality

  Air Quality AQ Index Pollutant
Yesterday Moderate
OZONE
Yesterday Good
PM2.5
Current Good
OZONE
Current Good
PM2.5
Friday Moderate
OZONE
Saturday Good
OZONE
Sunday Good
OZONE
Monday Good
OZONE
Tuesday Good
OZONE
Wednesday Good
OZONE

Snow Depth

Station Depth Elevation
Leavitt Lake 0 in 9400 ft
Leavitt Meadows 1 in 7200 ft
Summit Meadow 1 in 9122 ft
Monitor Pass 0 in 8350 ft
Hagan's Meadow 0 in 8000 ft

Earthquake Activity

City Distance Mag. Time & Date
West Hills, California 128 miles 2.5 4:21 AM PDT
2014-08-18
King City, California 81 miles 2.7 10:26 PM PDT
2014-08-15
Minimum magnitude displayed is 2.5.

Coastal Water Temperatures

Place Temperature
No Stations Reporting

Nearby Weather Stations